Time;durP1;ratioP1;P1;durP2;ratioP2;P2;SDS_P1;SDS_P2;PMS_P1;PMS_P2;Temp;Humidity;BMP_temperature;BMP_pressure;BME280_temperature;BME280_humidity;BME280_pressure;Samples;Min_cycle;Max_cycle;Signal;HPM_P1;HPM_P2
2022/05/06 00:00:24;;;;;;;16.67;9.38;;;;;;;13.44;69.67;102020.34;5020372;28;20062;-63
2022/05/06 00:02:52;;;;;;;16.23;9.60;;;;;;;13.03;71.28;102017.34;5015079;28;20053;-62
2022/05/06 00:05:19;;;;;;;17.90;9.82;;;;;;;13.03;71.90;102022.03;5015044;28;20053;-62
2022/05/06 00:07:46;;;;;;;13.50;9.77;;;;;;;13.05;71.49;102022.56;5021442;28;20054;-63
2022/05/06 00:10:14;;;;;;;14.98;10.50;;;;;;;12.87;72.38;102031.63;4981365;28;20053;-63
2022/05/06 00:12:42;;;;;;;14.98;9.88;;;;;;;12.52;74.28;102040.38;4996969;28;20405;-63
2022/05/06 00:15:11;;;;;;;19.88;10.23;;;;;;;12.60;74.61;102023.97;4997636;28;20057;-61
2022/05/06 00:17:39;;;;;;;15.95;11.20;;;;;;;12.41;74.90;102026.66;5011547;28;20457;-62
2022/05/06 00:20:07;;;;;;;16.92;10.07;;;;;;;12.60;74.58;102028.66;5017641;28;20045;-63
2022/05/06 00:22:35;;;;;;;14.93;10.50;;;;;;;12.88;73.26;102030.53;4997517;28;20046;-63
2022/05/06 00:25:02;;;;;;;17.13;10.95;;;;;;;12.83;73.44;102028.63;4997502;28;20051;-61
2022/05/06 00:27:30;;;;;;;13.60;10.45;;;;;;;12.94;73.02;102029.31;4971853;28;20046;-62
2022/05/06 00:29:57;;;;;;;18.05;11.02;;;;;;;12.95;73.06;102025.44;5015336;28;20065;-63
2022/05/06 00:32:28;;;;;;;20.75;10.90;;;;;;;12.93;73.44;102027.69;4996540;28;20054;-62
2022/05/06 00:34:55;;;;;;;17.30;10.68;;;;;;;12.77;73.39;102040.06;5015091;28;20405;-63
2022/05/06 00:37:23;;;;;;;15.68;11.52;;;;;;;12.48;74.64;102031.03;5009605;28;20430;-62
2022/05/06 00:39:50;;;;;;;16.65;10.63;;;;;;;12.74;74.35;102035.97;4986221;28;20054;-62
2022/05/06 00:42:18;;;;;;;16.40;12.13;;;;;;;13.03;73.28;102025.63;4992790;28;20049;-61
2022/05/06 00:44:45;;;;;;;18.98;11.18;;;;;;;13.10;72.87;102019.72;5007849;28;20058;-63
2022/05/06 00:47:14;;;;;;;17.20;11.90;;;;;;;12.77;73.37;102023.47;5004760;28;20659;-63
2022/05/06 00:49:42;;;;;;;17.98;11.30;;;;;;;12.71;74.31;102030.19;4952281;28;20062;-63
2022/05/06 00:52:09;;;;;;;18.40;12.23;;;;;;;12.72;74.60;102023.53;4980604;28;20065;-62
2022/05/06 00:54:38;;;;;;;16.13;11.10;;;;;;;12.81;74.38;102024.53;4984484;28;20054;-68
2022/05/06 00:57:08;;;;;;;19.15;12.30;;;;;;;12.73;74.54;102026.00;4996888;28;20054;-68
2022/05/06 01:00:17;;;;;;;17.23;12.23;;;;;;;12.87;73.74;102024.16;5009207;28;20068;-69
2022/05/06 01:02:23;;;;;;;18.63;12.32;;;;;;;13.13;72.90;102024.66;5003140;28;20053;-68
2022/05/06 01:04:56;;;;;;;17.25;11.25;;;;;;;13.39;71.61;102020.38;4981616;28;20062;-69
2022/05/06 01:07:23;;;;;;;21.55;12.27;;;;;;;12.94;73.07;102018.25;5004318;28;20050;-69
2022/05/06 01:09:51;;;;;;;16.73;11.90;;;;;;;12.72;74.63;102018.84;4991029;28;20054;-70
2022/05/06 01:12:19;;;;;;;18.88;12.23;;;;;;;13.01;73.77;102013.19;4996889;28;20503;-69
2022/05/06 01:14:47;;;;;;;20.80;13.45;;;;;;;12.61;74.41;102016.47;4984011;28;20065;-68
2022/05/06 01:17:23;;;;;;;16.77;12.05;;;;;;;12.46;75.71;102014.75;4996994;28;20061;-68
2022/05/06 01:19:50;;;;;;;18.30;12.95;;;;;;;12.44;75.28;102022.50;5018142;28;20057;-68
2022/05/06 01:22:18;;;;;;;18.23;12.45;;;;;;;12.37;76.02;102017.34;4993506;28;20053;-68
2022/05/06 01:24:46;;;;;;;19.85;13.25;;;;;;;12.13;76.75;102023.97;4981207;28;20054;-69
2022/05/06 01:27:23;;;;;;;16.77;12.88;;;;;;;12.52;76.24;102019.09;4993532;28;20054;-71
2022/05/06 01:29:51;;;;;;;18.27;11.82;;;;;;;12.52;75.62;102018.28;5005500;28;20046;-63
2022/05/06 01:32:22;;;;;;;22.25;14.20;;;;;;;12.03;77.67;102021.31;5000294;28;20048;-63
2022/05/06 01:34:49;;;;;;;;;;;;;;;12.23;77.66;102021.09;5018525;28;20060;-63
2022/05/06 01:37:21;;;;;;;19.63;13.90;;;;;;;12.25;76.97;102025.22;4986875;28;20246;-63
2022/05/06 01:39:52;;;;;;;21.13;14.15;;;;;;;12.48;76.06;102021.59;5002190;28;20049;-62
2022/05/06 01:42:38;;;;;;;22.05;14.43;;;;;;;12.43;76.31;102015.31;5000024;28;20050;-64
2022/05/06 01:45:10;;;;;;;23.15;14.02;;;;;;;12.01;77.89;102006.97;5000160;28;20054;-62
2022/05/06 01:47:42;;;;;;;21.42;15.13;;;;;;;11.82;78.85;102012.38;5009200;28;20061;-62
2022/05/06 01:50:12;;;;;;;22.13;14.57;;;;;;;11.70;79.93;102011.13;5012044;28;20066;-63
2022/05/06 01:52:41;;;;;;;21.40;14.52;;;;;;;11.85;79.30;102005.47;4981050;28;20054;-62
2022/05/06 01:55:09;;;;;;;22.38;14.18;;;;;;;12.01;78.88;102013.28;4966264;28;20061;-62
2022/05/06 01:57:53;;;;;;;22.15;14.50;;;;;;;12.05;78.94;102021.81;4971555;28;20386;-62
2022/05/06 02:00:21;;;;;;;19.00;14.55;;;;;;;12.21;77.98;102023.31;5000933;28;20072;-63
2022/05/06 02:02:49;;;;;;;18.63;13.93;;;;;;;12.47;77.29;102027.44;4999712;28;20137;-63
2022/05/06 02:05:25;;;;;;;22.02;14.75;;;;;;;12.56;76.29;102022.06;4980195;28;20065;-62
2022/05/06 02:07:55;;;;;;;22.58;16.38;;;;;;;12.26;77.26;102023.25;5000305;28;20492;-62
2022/05/06 02:10:25;;;;;;;23.65;15.30;;;;;;;11.98;78.14;102024.09;4983902;28;20064;-63
2022/05/06 02:13:02;;;;;;;23.85;16.30;;;;;;;12.30;76.99;102021.56;5002730;28;20610;-62
2022/05/06 02:15:36;;;;;;;24.67;16.35;;;;;;;12.20;77.76;102028.00;5015040;28;20050;-63
2022/05/06 02:18:22;;;;;;;28.08;15.77;;;;;;;11.95;78.71;102020.00;5003443;28;20057;-64
2022/05/06 02:21:15;;;;;;;22.60;16.15;;;;;;;11.76;79.62;102030.13;4997470;28;20397;-62
2022/05/06 02:24:01;;;;;;;22.80;16.27;;;;;;;11.99;79.09;102036.81;4983013;28;20058;-63
2022/05/06 02:27:06;;;;;;;21.58;15.40;;;;;;;11.74;79.75;102020.47;4948327;29;20051;-63
2022/05/06 02:29:35;;;;;;;25.38;17.60;;;;;;;11.77;79.89;102026.22;4914226;29;20092;-63
2022/05/06 02:34:52;;;;;;;23.30;16.27;;;;;;;12.06;78.49;102013.25;4982421;28;20069;-62
2022/05/06 02:37:20;;;;;;;21.95;16.23;;;;;;;11.89;78.89;102015.63;4979360;28;20054;-62
2022/05/06 02:39:50;;;;;;;26.92;17.15;;;;;;;11.91;79.60;102020.84;5003265;28;20049;-62
2022/05/06 02:42:21;;;;;;;23.38;15.77;;;;;;;12.19;78.63;102018.09;4998654;28;20057;-64
2022/05/06 02:44:51;;;;;;;23.35;15.55;;;;;;;12.23;78.21;102015.56;4988160;28;20672;-62
2022/05/06 02:47:19;;;;;;;24.42;16.55;;;;;;;11.98;79.28;102018.56;4991822;28;20058;-62
2022/05/06 02:49:47;;;;;;;23.70;17.83;;;;;;;11.89;78.95;102023.91;4997930;28;20054;-63
2022/05/06 02:52:16;;;;;;;22.90;17.58;;;;;;;11.74;79.83;102021.28;4991525;28;20072;-62
2022/05/06 02:54:50;;;;;;;27.45;17.92;;;;;;;11.55;80.65;102019.47;4987974;28;20064;-62
2022/05/06 02:57:45;;;;;;;25.15;17.80;;;;;;;11.41;81.92;102024.00;4958431;28;20065;-64
2022/05/06 03:00:16;;;;;;;29.27;18.80;;;;;;;11.75;80.87;102028.44;4997140;28;20406;-61
2022/05/06 03:02:44;;;;;;;24.23;18.23;;;;;;;11.86;79.84;102027.25;4998430;28;20065;-63
2022/05/06 03:05:12;;;;;;;27.42;18.15;;;;;;;11.49;80.73;102024.22;5027068;28;20062;-63
2022/05/06 03:07:41;;;;;;;29.27;19.77;;;;;;;11.48;81.41;102024.50;5017936;28;20420;-63
2022/05/06 03:10:10;;;;;;;27.25;18.38;;;;;;;11.34;81.62;102025.16;4998895;28;20058;-63
2022/05/06 03:12:42;;;;;;;28.02;19.25;;;;;;;11.11;82.83;102030.56;4985566;28;20049;-63
2022/05/06 03:15:15;;;;;;;28.33;18.55;;;;;;;11.20;83.06;102032.44;5004595;28;20056;-63
2022/05/06 03:18:01;;;;;;;30.02;19.15;;;;;;;11.21;83.29;102025.78;4999485;28;20066;-63
2022/05/06 03:20:56;;;;;;;27.67;18.63;;;;;;;11.44;82.33;102034.50;4981047;28;20050;-65
2022/05/06 03:23:24;;;;;;;31.70;18.85;;;;;;;11.18;82.48;102031.91;4972707;28;20489;-63
2022/05/06 03:26:03;;;;;;;35.55;19.90;;;;;;;11.39;83.03;102035.34;4990071;28;20050;-64
2022/05/06 03:28:32;;;;;;;27.85;19.60;;;;;;;11.18;82.60;102039.34;4987266;28;20057;-62
2022/05/06 03:31:00;;;;;;;27.50;19.27;;;;;;;11.01;84.38;102041.66;4966202;28;20046;-62
2022/05/06 03:33:33;;;;;;;33.45;19.92;;;;;;;10.86;84.38;102034.28;4995082;28;20843;-62
2022/05/06 03:36:09;;;;;;;31.45;19.80;;;;;;;10.90;85.05;102032.59;4984809;28;20068;-62
2022/05/06 03:38:45;;;;;;;27.80;18.65;;;;;;;11.25;83.97;102037.09;4970670;28;20053;-62
2022/05/06 03:41:13;;;;;;;30.48;19.23;;;;;;;11.34;82.99;102030.69;4998596;28;20061;-63
2022/05/06 03:43:43;;;;;;;28.87;18.73;;;;;;;11.19;83.04;102044.56;4984312;28;20061;-62
2022/05/06 03:46:16;;;;;;;28.13;19.80;;;;;;;11.23;84.08;102047.56;5001671;28;20315;-62
2022/05/06 03:48:44;;;;;;;31.65;20.65;;;;;;;11.30;82.22;102037.03;4984688;28;20056;-62
2022/05/06 03:51:21;;;;;;;27.55;18.92;;;;;;;11.19;82.63;102043.75;4998196;28;20049;-62
2022/05/06 03:53:57;;;;;;;28.67;19.25;;;;;;;11.15;83.30;102039.91;5007568;28;20057;-61
2022/05/06 03:56:27;;;;;;;29.38;19.63;;;;;;;11.01;84.27;102041.66;4994945;28;20057;-61
2022/05/06 03:58:58;;;;;;;30.63;20.00;;;;;;;11.08;84.07;102043.00;4976575;28;20053;-61
2022/05/06 04:01:25;;;;;;;29.88;19.02;;;;;;;11.02;84.90;102054.31;4993578;28;20402;-63
2022/05/06 04:03:55;;;;;;;29.65;20.58;;;;;;;11.02;83.88;102051.56;4992310;28;20057;-62
2022/05/06 04:06:28;;;;;;;31.38;19.48;;;;;;;10.91;84.49;102048.03;5028194;28;20052;-62
2022/05/06 04:08:57;;;;;;;31.08;20.45;;;;;;;10.91;84.60;102049.97;5001290;28;20112;-62
2022/05/06 04:11:28;;;;;;;28.95;19.70;;;;;;;10.89;84.90;102049.44;4977655;28;20521;-62
2022/05/06 04:14:00;;;;;;;29.50;20.77;;;;;;;10.69;85.43;102064.13;4993007;28;20053;-62
2022/05/06 04:16:29;;;;;;;30.98;19.13;;;;;;;10.82;85.96;102055.25;4999807;28;20062;-69
2022/05/06 04:19:01;;;;;;;33.90;20.55;;;;;;;10.93;84.70;102056.84;4975895;28;20038;-69
2022/05/06 04:24:17;;;;;;;32.05;22.00;;;;;;;10.60;86.56;102060.28;5004094;28;20053;-68
2022/05/06 04:26:45;;;;;;;31.80;19.85;;;;;;;11.22;84.62;102055.03;4980310;28;20064;-70
2022/05/06 04:29:13;;;;;;;29.00;20.50;;;;;;;11.18;83.26;102059.47;4981851;28;20406;-68
2022/05/06 04:31:48;;;;;;;31.85;20.77;;;;;;;11.27;82.68;102057.78;4997364;28;20068;-68
2022/05/06 04:34:18;;;;;;;33.95;20.60;;;;;;;11.32;82.45;102060.50;4977728;28;20053;-70
2022/05/06 04:36:46;;;;;;;31.75;20.00;;;;;;;11.55;81.51;102066.41;5024479;28;20060;-69
2022/05/06 04:39:17;;;;;;;32.25;18.80;;;;;;;11.83;80.15;102069.25;4984931;28;20054;-71
2022/05/06 04:42:21;;;;;;;30.73;20.08;;;;;;;11.22;82.59;102070.75;4989759;28;20042;-68
2022/05/06 04:44:48;;;;;;;28.13;19.60;;;;;;;11.08;83.65;102069.72;5001920;28;20050;-68
2022/05/06 04:47:16;;;;;;;29.08;18.48;;;;;;;11.34;82.79;102074.81;5004444;28;20050;-68
2022/05/06 04:49:44;;;;;;;33.13;21.30;;;;;;;11.12;82.88;102082.66;4971132;28;20630;-67
2022/05/06 04:52:11;;;;;;;32.10;19.48;;;;;;;11.14;83.05;102074.13;4965171;28;20138;-69
2022/05/06 04:54:39;;;;;;;33.58;21.80;;;;;;;10.91;83.88;102069.28;4982412;28;20049;-69
2022/05/06 04:57:06;;;;;;;28.85;19.13;;;;;;;11.25;83.83;102075.69;4998734;28;20046;-68
2022/05/06 04:59:36;;;;;;;31.23;19.95;;;;;;;11.10;83.81;102073.88;4982211;28;20062;-68
2022/05/06 05:02:04;;;;;;;29.48;19.30;;;;;;;11.30;82.69;102079.25;5001348;28;20053;-62
2022/05/06 05:04:33;;;;;;;35.97;19.92;;;;;;;11.56;81.95;102082.66;5000724;28;20042;-62
2022/05/06 05:07:08;;;;;;;30.05;19.83;;;;;;;11.16;83.04;102082.91;5012294;28;20052;-62
2022/05/06 05:09:42;;;;;;;28.35;19.40;;;;;;;11.16;83.15;102082.91;4997283;28;20420;-63
2022/05/06 05:12:10;;;;;;;31.45;20.65;;;;;;;11.43;81.75;102091.59;5006345;28;20057;-69
2022/05/06 05:14:43;;;;;;;29.58;20.50;;;;;;;11.45;80.79;102085.78;5001403;28;20545;-68
2022/05/06 05:17:13;;;;;;;28.23;19.63;;;;;;;11.34;81.28;102090.53;4981433;28;20050;-69
2022/05/06 05:19:44;;;;;;;29.85;19.05;;;;;;;11.15;83.01;102087.63;5025414;28;20498;-68
2022/05/06 05:22:12;;;;;;;32.30;20.02;;;;;;;11.14;82.56;102088.72;4998482;28;20057;-69
2022/05/06 05:24:42;;;;;;;28.90;19.85;;;;;;;11.01;83.21;102083.00;4970840;28;20053;-68
2022/05/06 05:27:10;;;;;;;31.20;20.27;;;;;;;11.16;82.31;102086.50;5000910;28;20069;-69
2022/05/06 05:29:37;;;;;;;28.38;19.95;;;;;;;11.42;82.26;102086.38;5013317;28;20417;-70
2022/05/06 05:32:06;;;;;;;33.30;20.30;;;;;;;11.52;80.68;102083.53;5008389;28;20052;-69
2022/05/06 05:34:35;;;;;;;31.63;20.13;;;;;;;11.38;81.83;102083.34;4965272;28;20054;-67
2022/05/06 05:37:14;;;;;;;29.35;19.13;;;;;;;11.66;81.07;102085.41;4988116;28;20065;-71
2022/05/06 05:39:42;;;;;;;32.92;20.55;;;;;;;11.56;80.38;102082.66;5000440;28;20046;-66
2022/05/06 05:42:13;;;;;;;30.35;19.80;;;;;;;11.39;81.06;102093.28;5003055;28;20047;-62
2022/05/06 05:50:19;;;;;;;32.60;20.30;;;;;;;11.21;81.72;102105.78;5000202;28;20043;-62
2022/05/06 05:52:47;;;;;;;31.90;21.67;;;;;;;11.34;81.86;102109.84;4991386;28;20055;-64
2022/05/06 05:55:15;;;;;;;32.30;20.80;;;;;;;11.20;82.65;102106.91;5003767;28;20067;-64
2022/05/06 05:57:46;;;;;;;32.20;20.63;;;;;;;11.24;81.80;102101.66;4997148;28;20061;-64
2022/05/06 06:00:36;;;;;;;42.45;21.50;;;;;;;11.65;80.71;102097.53;5002737;28;20077;-66
2022/05/06 06:03:37;;;;;;;45.65;21.30;;;;;;;11.73;80.06;102093.34;4979443;28;20667;-64
2022/05/06 06:06:27;;;;;;;36.95;18.85;;;;;;;12.22;78.17;102094.03;4954792;28;20121;-62
2022/05/06 06:08:56;;;;;;;30.27;19.70;;;;;;;12.51;76.91;102089.31;4967504;28;20055;-63
2022/05/06 06:11:25;;;;;;;35.40;20.92;;;;;;;12.14;77.37;102087.19;5001885;28;20046;-63
2022/05/06 06:13:57;;;;;;;34.35;21.65;;;;;;;11.64;79.73;102093.16;4980087;28;20062;-71
2022/05/06 06:16:26;;;;;;;32.50;21.38;;;;;;;12.02;78.98;102088.69;5004201;28;20053;-69
2022/05/06 06:18:58;;;;;;;30.17;19.92;;;;;;;12.52;77.53;102096.47;4995420;28;20054;-69
2022/05/06 06:22:02;;;;;;;29.45;20.33;;;;;;;12.51;75.79;102097.59;4957937;28;20055;-71
2022/05/06 06:25:06;;;;;;;28.95;19.27;;;;;;;12.62;76.97;102087.25;4995744;28;20062;-70
2022/05/06 06:27:39;;;;;;;28.85;20.08;;;;;;;13.05;75.04;102091.72;4980480;28;20058;-72
2022/05/06 06:30:21;;;;;;;29.40;19.77;;;;;;;12.81;74.50;102104.72;5001362;28;20038;-68
2022/05/06 06:32:56;;;;;;;37.90;20.25;;;;;;;12.91;74.59;102104.59;5015320;28;20065;-70
2022/05/06 06:35:24;;;;;;;33.05;21.63;;;;;;;12.74;75.06;102099.56;4974914;28;20047;-70
2022/05/06 06:37:54;;;;;;;32.08;19.38;;;;;;;12.84;74.72;102104.13;4965508;28;20039;-68
2022/05/06 06:40:25;;;;;;;31.65;21.25;;;;;;;12.61;75.68;102104.94;4972827;28;20062;-67
2022/05/06 06:42:53;;;;;;;28.70;17.88;;;;;;;12.98;75.57;102114.19;5006321;28;20053;-68
2022/05/06 06:45:41;;;;;;;38.33;21.95;;;;;;;12.86;74.35;102104.66;5010741;28;20054;-69
2022/05/06 06:48:29;;;;;;;29.33;17.70;;;;;;;13.16;74.89;102105.13;4973076;28;20576;-72
2022/05/06 06:51:20;;;;;;;35.40;20.77;;;;;;;13.54;72.60;102105.97;4978249;28;20058;-71
2022/05/06 06:53:53;;;;;;;;;;;;;;;13.30;72.98;102096.94;5007102;28;20054;-72
2022/05/06 06:56:22;;;;;;;32.42;19.48;;;;;;;13.58;73.11;102098.72;5001587;28;19921;-70
2022/05/06 06:58:49;;;;;;;39.15;20.85;;;;;;;13.63;72.80;102100.59;4955262;28;20062;-70
2022/05/06 07:01:21;;;;;;;35.30;22.23;;;;;;;13.28;73.32;102104.69;5026735;28;20480;-71
2022/05/06 07:03:48;;;;;;;33.63;22.67;;;;;;;12.63;76.07;102098.00;4997810;28;20054;-71
2022/05/06 07:11:55;;;;;;;36.47;21.35;;;;;;;13.05;75.91;102102.78;5015178;28;20046;-67
2022/05/06 07:14:28;;;;;;;39.10;21.98;;;;;;;13.55;74.21;102097.38;4968302;28;20046;-66
2022/05/06 07:16:57;;;;;;;32.83;20.63;;;;;;;13.41;74.27;102107.53;5009143;28;20056;-66
2022/05/06 07:19:28;;;;;;;33.17;21.70;;;;;;;13.26;74.33;102106.94;4991451;28;20047;-69
2022/05/06 07:22:50;;;;;;;35.33;20.23;;;;;;;13.77;73.15;102109.78;5010564;28;20064;-70
2022/05/06 07:25:18;;;;;;;29.98;20.65;;;;;;;13.64;73.42;102110.53;4994017;28;20057;-72
2022/05/06 07:27:45;;;;;;;34.65;20.95;;;;;;;13.91;72.36;102114.28;5014527;28;20042;-72
2022/05/06 07:30:13;;;;;;;29.77;20.75;;;;;;;13.54;73.53;102105.97;4979137;28;20054;-72
2022/05/06 07:32:41;;;;;;;30.02;20.13;;;;;;;13.74;72.60;102115.94;4995282;28;20061;-66
2022/05/06 07:35:09;;;;;;;34.95;19.25;;;;;;;14.33;71.06;102122.41;5015574;28;20053;-67
2022/05/06 07:37:36;;;;;;;26.63;17.85;;;;;;;13.99;70.56;102118.28;5024166;28;20052;-67
2022/05/06 07:40:05;;;;;;;32.15;19.20;;;;;;;13.76;71.46;102120.03;5013436;28;20045;-67
2022/05/06 07:42:34;;;;;;;29.23;18.70;;;;;;;13.39;73.28;102128.31;5013584;28;20069;-66
2022/05/06 07:45:01;;;;;;;34.30;19.38;;;;;;;13.38;73.70;102116.44;4996000;28;20553;-66
2022/05/06 07:47:29;;;;;;;30.50;19.98;;;;;;;13.58;72.45;102121.69;5013731;28;20508;-67
2022/05/06 07:50:17;;;;;;;28.67;18.75;;;;;;;13.87;71.85;102117.94;4999177;28;20053;-68
2022/05/06 07:52:45;;;;;;;29.45;18.40;;;;;;;14.11;71.62;102121.41;5014700;28;20069;-66
2022/05/06 07:55:15;;;;;;;29.33;18.17;;;;;;;14.49;69.75;102115.47;4993573;28;20049;-66
2022/05/06 07:57:42;;;;;;;;;;;;;;;14.75;68.00;102109.44;5012762;28;20048;-62
2022/05/06 08:00:10;;;;;;;26.77;15.90;;;;;;;15.18;67.52;102119.09;5012338;28;19932;-63
2022/05/06 08:05:27;;;;;;;27.90;17.45;;;;;;;15.09;66.66;102109.84;5021368;28;20504;-64
2022/05/06 08:07:55;;;;;;;27.77;16.17;;;;;;;15.35;66.77;102117.31;5022621;28;20053;-64
2022/05/06 08:10:23;;;;;;;26.75;16.23;;;;;;;15.74;64.97;102100.88;4996387;28;20057;-63
2022/05/06 08:12:51;;;;;;;28.90;17.60;;;;;;;16.07;63.96;102109.81;5013065;28;20064;-64
2022/05/06 08:15:18;;;;;;;29.50;18.00;;;;;;;14.94;65.38;102110.97;5011687;28;20049;-63
2022/05/06 08:17:46;;;;;;;27.30;16.67;;;;;;;14.69;66.79;102117.03;4994860;28;20033;-62
2022/05/06 08:20:13;;;;;;;22.88;15.75;;;;;;;15.01;66.35;102108.59;4995152;28;20054;-63
2022/05/06 08:22:40;;;;;;;28.92;16.42;;;;;;;14.92;66.90;102112.44;4992530;28;20049;-62
2022/05/06 08:25:08;;;;;;;29.05;17.00;;;;;;;15.05;66.49;102106.03;4995808;28;20046;-62
2022/05/06 08:27:54;;;;;;;26.05;16.50;;;;;;;14.93;66.40;102116.84;4999789;28;20057;-62
2022/05/06 08:30:22;;;;;;;27.73;15.98;;;;;;;14.90;66.51;102106.34;5015108;28;20054;-63
2022/05/06 08:32:51;;;;;;;25.20;15.38;;;;;;;14.94;66.34;102101.84;4997587;28;20064;-63
2022/05/06 08:35:19;;;;;;;29.27;16.80;;;;;;;14.84;66.36;102100.09;4993304;28;20081;-62
2022/05/06 08:37:47;;;;;;;25.73;15.68;;;;;;;15.19;64.80;102104.91;4983734;28;20489;-62
2022/05/06 08:40:19;;;;;;;25.88;17.45;;;;;;;15.13;65.24;102110.88;4999996;28;20057;-63
2022/05/06 08:42:49;;;;;;;26.10;16.02;;;;;;;14.95;66.65;102106.25;5015325;28;20492;-63
2022/05/06 08:50:57;;;;;;;25.05;15.82;;;;;;;15.33;64.07;102105.69;5014828;28;20058;-63
2022/05/06 08:53:26;;;;;;;27.40;15.70;;;;;;;15.26;63.55;102101.69;4995136;28;20808;-65
2022/05/06 08:55:57;;;;;;;21.80;14.88;;;;;;;15.46;63.32;102101.28;5013581;28;20050;-67
2022/05/06 08:58:26;;;;;;;35.17;15.55;;;;;;;15.64;63.48;102095.56;4978821;28;20065;-67
2022/05/06 09:01:07;;;;;;;26.88;15.90;;;;;;;16.24;62.58;102090.44;4991191;28;20057;-65
2022/05/06 09:03:44;;;;;;;;;;;;;;;16.23;61.19;102083.22;4987049;28;20069;-67
2022/05/06 09:06:20;;;;;;;26.77;14.88;;;;;;;16.21;60.38;102090.25;4973615;28;19921;-67
2022/05/06 09:08:51;;;;;;;19.63;13.45;;;;;;;16.44;60.77;102086.31;4986211;28;20362;-65
2022/05/06 09:14:08;;;;;;;20.58;15.05;;;;;;;16.64;59.22;102088.53;4995122;28;20057;-66
2022/05/06 09:16:43;;;;;;;23.88;13.55;;;;;;;16.65;58.78;102079.03;4977530;28;20046;-66
2022/05/06 09:19:25;;;;;;;16.40;11.20;;;;;;;16.86;58.65;102086.50;4962077;28;20058;-67
2022/05/06 09:22:14;;;;;;;21.42;11.60;;;;;;;16.59;57.91;102080.34;5012005;28;20102;-65
2022/05/06 09:24:44;;;;;;;17.58;10.43;;;;;;;16.30;58.66;102078.03;4993815;28;20038;-70
2022/05/06 09:27:13;;;;;;;21.63;10.52;;;;;;;16.30;59.27;102080.03;4992176;28;20081;-70
2022/05/06 09:29:44;;;;;;;19.45;11.73;;;;;;;16.53;58.17;102073.28;5014165;28;20046;-69
2022/05/06 09:32:14;;;;;;;36.47;13.52;;;;;;;15.96;60.26;102079.78;5010344;28;20046;-69
2022/05/06 09:34:42;;;;;;;20.90;12.50;;;;;;;15.73;61.16;102073.41;4972310;28;20054;-70
2022/05/06 09:37:09;;;;;;;23.23;10.63;;;;;;;16.04;60.03;102076.25;4980025;28;20058;-70
2022/05/06 09:39:39;;;;;;;19.52;12.52;;;;;;;15.89;60.80;102068.28;4993301;28;20056;-70
2022/05/06 09:42:08;;;;;;;16.83;11.45;;;;;;;16.04;60.82;102059.59;4993696;28;20054;-69
2022/05/06 09:44:35;;;;;;;24.85;11.82;;;;;;;16.06;60.39;102068.41;5023743;28;20053;-68
2022/05/06 09:47:08;;;;;;;26.65;11.50;;;;;;;16.32;59.97;102061.06;4999986;28;20385;-69
2022/05/06 09:49:42;;;;;;;20.20;10.50;;;;;;;16.63;59.51;102059.09;5003980;28;20058;-69
2022/05/06 09:52:16;;;;;;;19.23;11.95;;;;;;;16.76;58.08;102063.72;5012858;28;20494;-69
2022/05/06 09:54:46;;;;;;;16.27;10.00;;;;;;;16.89;57.84;102058.03;4991405;28;20058;-71
2022/05/06 09:57:18;;;;;;;21.38;10.07;;;;;;;16.81;57.65;102058.00;4995375;28;20046;-69
2022/05/06 09:59:47;;;;;;;12.55;9.48;;;;;;;17.05;57.48;102046.44;5014367;28;20062;-70
2022/05/06 10:02:18;;;;;;;20.75;9.38;;;;;;;16.96;56.99;102051.16;5006637;28;20050;-70
2022/05/06 10:04:48;;;;;;;15.23;9.27;;;;;;;17.21;57.18;102054.00;4992225;28;20520;-70
2022/05/06 10:07:17;;;;;;;19.05;10.25;;;;;;;16.78;57.63;102050.31;4999495;28;20424;-70
2022/05/06 10:09:51;;;;;;;18.65;10.38;;;;;;;16.79;57.33;102052.75;4983231;28;20138;-70
2022/05/06 10:12:20;;;;;;;13.68;9.23;;;;;;;17.32;56.69;102048.94;4982315;28;20050;-70
2022/05/06 10:14:49;;;;;;;13.93;9.00;;;;;;;17.20;56.32;102052.38;4996400;28;20054;-68
2022/05/06 10:17:59;;;;;;;13.27;8.50;;;;;;;16.84;55.59;102051.81;4996302;28;20042;-69
2022/05/06 10:20:33;;;;;;;13.30;8.20;;;;;;;17.03;55.81;102044.00;4991391;28;20061;-69
2022/05/06 10:23:09;;;;;;;12.05;7.82;;;;;;;17.46;55.10;102042.09;5003515;28;20617;-69
2022/05/06 10:25:40;;;;;;;13.02;7.95;;;;;;;17.39;55.33;102044.53;4992444;28;20092;-68
2022/05/06 10:34:14;;;;;;;14.82;7.90;;;;;;;17.45;54.75;102043.19;5011492;28;20061;-67
2022/05/06 10:36:45;;;;;;;9.85;7.00;;;;;;;17.78;54.20;102041.56;5008277;28;20053;-67
2022/05/06 10:39:27;;;;;;;12.48;8.40;;;;;;;17.77;52.73;102039.13;5014971;28;20049;-69
2022/05/06 10:42:10;;;;;;;13.50;8.88;;;;;;;17.86;52.41;102042.72;4995451;28;20045;-68
2022/05/06 10:44:44;;;;;;;9.25;7.18;;;;;;;17.86;52.02;102037.16;5009785;28;20512;-74
2022/05/06 10:47:11;;;;;;;15.90;8.13;;;;;;;17.53;52.55;102028.50;5009788;28;20473;-73
2022/05/06 10:49:39;;;;;;;10.23;6.90;;;;;;;17.54;52.96;102032.13;4983215;28;20065;-73
2022/05/06 10:52:23;;;;;;;10.02;6.72;;;;;;;17.79;52.46;102025.69;4998814;28;20038;-70
2022/05/06 10:54:53;;;;;;;15.93;6.95;;;;;;;17.85;52.06;102030.75;5003886;28;20053;-73
2022/05/06 10:57:25;;;;;;;13.82;6.95;;;;;;;17.81;52.42;102007.50;4998279;28;20053;-68
2022/05/06 11:00:00;;;;;;;13.20;7.53;;;;;;;18.48;51.03;102017.97;4982548;28;20049;-70
2022/05/06 11:02:29;;;;;;;12.98;6.60;;;;;;;18.58;51.63;102017.59;5003012;28;20659;-70
2022/05/06 11:05:01;;;;;;;10.90;6.60;;;;;;;18.64;49.71;102014.28;4967770;28;20054;-69
2022/05/06 11:07:30;;;;;;;11.30;5.63;;;;;;;19.02;49.58;102006.66;5004358;28;20059;-69
2022/05/06 11:10:11;;;;;;;14.18;6.32;;;;;;;19.02;48.09;102006.66;4995466;28;20493;-70
2022/05/06 11:12:51;;;;;;;10.95;6.30;;;;;;;18.61;48.97;102011.34;5006138;28;20050;-68
2022/05/06 11:15:20;;;;;;;8.63;6.55;;;;;;;18.05;50.48;102009.72;5007008;28;20062;-67
2022/05/06 11:17:49;;;;;;;13.50;6.47;;;;;;;18.09;49.92;102005.13;4989948;28;20611;-68
2022/05/06 11:20:23;;;;;;;12.57;6.43;;;;;;;18.27;50.42;102006.69;5009684;28;20054;-68
2022/05/06 11:23:05;;;;;;;10.35;6.03;;;;;;;18.69;48.85;101997.31;4989720;28;20042;-69
2022/05/06 11:25:35;;;;;;;12.07;6.28;;;;;;;18.79;48.92;102002.50;5000967;28;20538;-68
2022/05/06 11:28:04;;;;;;;10.05;5.60;;;;;;;18.20;49.37;101998.00;5006591;28;20050;-69
2022/05/06 11:30:32;;;;;;;11.98;6.00;;;;;;;18.28;49.39;101997.19;4991434;28;20080;-68
2022/05/06 11:33:02;;;;;;;15.30;5.97;;;;;;;18.63;49.30;101995.91;5007860;28;20050;-67
2022/05/06 11:35:33;;;;;;;9.85;5.63;;;;;;;18.56;48.23;101986.41;5004271;28;20061;-67
2022/05/06 11:38:01;;;;;;;12.07;5.57;;;;;;;18.50;47.47;101988.56;4990411;28;20057;-66
2022/05/06 11:40:34;;;;;;;10.27;5.43;;;;;;;18.63;47.62;101987.53;5006510;28;20042;-66
2022/05/06 11:43:07;;;;;;;9.30;5.57;;;;;;;18.46;47.21;101990.38;5000739;28;20061;-69
2022/05/06 11:48:22;;;;;;;23.27;6.75;;;;;;;18.94;46.59;101998.31;4969419;28;20053;-68
2022/05/06 11:50:56;;;;;;;14.88;5.68;;;;;;;19.09;46.07;101983.75;4985923;28;20608;-64
2022/05/06 11:53:27;;;;;;;10.45;5.72;;;;;;;19.28;45.29;101978.53;4988962;28;20057;-64
2022/05/06 11:55:55;;;;;;;13.30;5.30;;;;;;;19.35;44.80;101978.84;5003352;28;20049;-65
2022/05/06 11:58:25;;;;;;;8.82;5.13;;;;;;;19.26;45.19;101980.03;5000647;28;20192;-63
2022/05/06 12:00:53;;;;;;;7.82;4.95;;;;;;;18.98;44.36;101985.34;4970796;28;20126;-64
2022/05/06 12:03:22;;;;;;;10.27;4.72;;;;;;;18.86;44.73;101986.03;4981565;28;20061;-62
2022/05/06 12:06:07;;;;;;;8.35;4.72;;;;;;;18.91;44.02;101979.47;5011925;28;20046;-62
2022/05/06 12:08:36;;;;;;;11.57;4.57;;;;;;;19.00;43.50;101985.81;5003383;28;20062;-61
2022/05/06 12:11:07;;;;;;;14.65;5.15;;;;;;;18.78;43.69;101977.72;4984224;28;20046;-62